createdAt,value
2022-07-28T00:00:47.126Z,99.90
2022-07-28T00:03:14.173Z,99.90
2022-07-28T00:05:41.714Z,99.90
2022-07-28T00:08:10.344Z,99.90
2022-07-28T00:10:37.391Z,99.90
2022-07-28T00:13:06.783Z,99.90
2022-07-28T00:15:34.378Z,99.90
2022-07-28T00:18:01.316Z,99.90
2022-07-28T00:20:30.620Z,99.90
2022-07-28T00:22:57.654Z,99.90
2022-07-28T00:25:24.661Z,99.90
2022-07-28T00:27:51.576Z,99.90
2022-07-28T00:30:19.644Z,99.90
2022-07-28T00:32:46.779Z,99.90
2022-07-28T00:35:15.021Z,99.90
2022-07-28T00:37:42.590Z,99.90
2022-07-28T00:40:10.217Z,99.90
2022-07-28T00:42:37.194Z,99.90
2022-07-28T00:45:04.864Z,99.90
2022-07-28T00:47:33.523Z,99.90
2022-07-28T00:50:02.229Z,99.90
2022-07-28T00:52:29.696Z,99.90
2022-07-28T00:54:58.713Z,99.90
2022-07-28T00:57:25.642Z,99.90
2022-07-28T00:59:52.558Z,99.90
2022-07-28T01:02:19.910Z,99.90
2022-07-28T01:04:47.185Z,99.90
2022-07-28T01:07:43.065Z,99.90
2022-07-28T01:10:45.345Z,99.90
2022-07-28T01:13:33.262Z,99.90
2022-07-28T01:16:06.243Z,99.90
2022-07-28T01:18:35.783Z,99.90
2022-07-28T01:21:12.192Z,99.90
2022-07-28T01:23:41.841Z,99.90
2022-07-28T01:26:17.332Z,99.90
2022-07-28T01:28:59.609Z,99.90
2022-07-28T01:31:30.619Z,99.90
2022-07-28T01:34:03.946Z,99.90
2022-07-28T01:36:43.583Z,99.90
2022-07-28T01:39:12.090Z,99.90
2022-07-28T01:41:41.832Z,99.90
2022-07-28T01:44:14.753Z,99.90
2022-07-28T01:46:44.098Z,99.90
2022-07-28T01:49:12.440Z,99.90
2022-07-28T01:51:41.726Z,99.90
2022-07-28T01:54:10.195Z,99.90
2022-07-28T01:56:38.406Z,99.90
2022-07-28T01:59:07.427Z,99.90
2022-07-28T02:01:43.390Z,99.90
2022-07-28T02:04:12.990Z,99.90
2022-07-28T02:06:42.880Z,99.90
2022-07-28T02:09:10.906Z,99.90
2022-07-28T02:11:41.184Z,99.90
2022-07-28T02:14:13.682Z,99.90
2022-07-28T02:16:46.086Z,99.90
2022-07-28T02:19:14.648Z,99.90
2022-07-28T02:21:43.408Z,99.90
2022-07-28T02:24:12.567Z,99.90
2022-07-28T02:26:46.838Z,99.90
2022-07-28T02:29:33.493Z,99.90
2022-07-28T02:32:32.048Z,99.90
2022-07-28T02:35:05.204Z,99.90
2022-07-28T02:37:40.134Z,99.90
2022-07-28T02:40:12.059Z,99.90
2022-07-28T02:42:40.387Z,99.90
2022-07-28T02:45:11.720Z,99.90
2022-07-28T02:47:44.234Z,99.90
2022-07-28T02:50:14.750Z,99.90
2022-07-28T02:52:43.913Z,99.90
2022-07-28T02:55:14.545Z,99.90
2022-07-28T02:57:44.040Z,99.90
2022-07-28T03:00:12.813Z,99.90
2022-07-28T03:02:41.397Z,99.90
2022-07-28T03:05:11.380Z,99.90
2022-07-28T03:07:42.456Z,99.90
2022-07-28T03:10:33.441Z,99.90
2022-07-28T03:13:03.711Z,99.90
2022-07-28T03:15:31.241Z,99.90
2022-07-28T03:17:59.356Z,99.90
2022-07-28T03:20:26.744Z,99.90
2022-07-28T03:22:53.708Z,99.90
2022-07-28T03:25:43.395Z,99.90
2022-07-28T03:28:15.120Z,99.90
2022-07-28T03:30:45.546Z,99.90
2022-07-28T03:33:13.075Z,99.90
2022-07-28T03:35:46.074Z,99.90
2022-07-28T03:38:17.925Z,99.90
2022-07-28T03:40:46.603Z,99.90
2022-07-28T03:43:16.737Z,99.90
2022-07-28T03:45:46.478Z,99.90
2022-07-28T03:48:15.085Z,99.90
2022-07-28T03:50:42.578Z,99.90
2022-07-28T03:53:35.648Z,99.90
2022-07-28T03:56:03.448Z,99.90
2022-07-28T03:58:31.197Z,99.90
2022-07-28T04:00:58.813Z,99.90
2022-07-28T04:03:36.883Z,99.90
2022-07-28T04:06:10.878Z,99.90
2022-07-28T04:08:37.765Z,99.90
2022-07-28T04:11:04.734Z,99.90
2022-07-28T04:13:37.278Z,99.90
2022-07-28T04:16:05.681Z,99.90
2022-07-28T04:18:32.854Z,99.90
2022-07-28T04:20:59.815Z,99.90
2022-07-28T04:23:26.766Z,99.90
2022-07-28T04:25:53.757Z,99.90
2022-07-28T04:28:20.670Z,99.90
2022-07-28T04:30:47.713Z,99.90
2022-07-28T04:33:14.640Z,99.90
2022-07-28T04:35:41.612Z,99.90
2022-07-28T04:38:08.520Z,99.90
2022-07-28T04:40:35.583Z,99.90
2022-07-28T04:43:03.990Z,99.90
2022-07-28T04:45:31.268Z,99.90
2022-07-28T04:47:58.161Z,99.90
2022-07-28T04:50:25.621Z,99.90
2022-07-28T04:52:52.520Z,99.90
2022-07-28T04:55:19.429Z,99.90
2022-07-28T04:57:46.530Z,99.90
2022-07-28T05:00:14.915Z,99.90
2022-07-28T05:02:43.485Z,99.90
2022-07-28T05:05:11.077Z,99.90
2022-07-28T05:07:38.947Z,99.90
2022-07-28T05:10:07.781Z,99.90
2022-07-28T05:12:34.733Z,99.90
2022-07-28T05:15:01.686Z,99.90
2022-07-28T05:17:28.619Z,99.90
2022-07-28T05:19:55.445Z,99.90
2022-07-28T05:22:22.322Z,99.90
2022-07-28T05:24:49.256Z,99.90
2022-07-28T05:27:16.176Z,99.90
2022-07-28T05:29:47.691Z,99.90
2022-07-28T05:32:16.834Z,99.90
2022-07-28T05:34:47.593Z,99.90
2022-07-28T05:37:14.481Z,99.90
2022-07-28T05:39:41.549Z,99.90
2022-07-28T05:42:08.473Z,99.90
2022-07-28T05:44:38.223Z,99.90
2022-07-28T05:47:06.314Z,99.90
2022-07-28T05:49:33.706Z,99.90
2022-07-28T05:52:00.604Z,99.90
2022-07-28T05:54:28.187Z,99.90
2022-07-28T05:56:55.108Z,99.90
2022-07-28T05:59:21.969Z,99.90
2022-07-28T06:01:48.943Z,99.90
2022-07-28T06:04:26.597Z,99.90
2022-07-28T06:06:54.815Z,99.90
2022-07-28T06:09:21.779Z,99.90
2022-07-28T06:11:50.652Z,99.90
2022-07-28T06:14:18.795Z,99.90
2022-07-28T06:16:51.232Z,99.90
2022-07-28T06:19:19.461Z,99.90
2022-07-28T06:21:47.766Z,99.90
2022-07-28T06:24:15.119Z,99.90
2022-07-28T06:26:44.890Z,99.90
2022-07-28T06:29:12.491Z,99.90
2022-07-28T06:31:39.610Z,99.90
2022-07-28T06:34:06.882Z,99.90
2022-07-28T06:36:33.943Z,99.90
2022-07-28T06:39:00.840Z,99.90
2022-07-28T06:41:28.175Z,99.90
2022-07-28T06:43:55.068Z,99.90
2022-07-28T06:46:22.870Z,99.90
2022-07-28T06:48:50.190Z,99.90
2022-07-28T06:51:19.863Z,99.90
2022-07-28T06:53:48.710Z,99.90
2022-07-28T06:56:16.185Z,99.90
2022-07-28T06:58:47.137Z,99.90
2022-07-28T07:01:15.375Z,99.90
2022-07-28T07:03:43.453Z,99.90
2022-07-28T07:06:11.023Z,99.90
2022-07-28T07:08:38.333Z,99.90
2022-07-28T07:11:05.369Z,99.90
2022-07-28T07:13:33.286Z,99.90
2022-07-28T07:16:00.599Z,99.90
2022-07-28T07:18:27.716Z,99.90
2022-07-28T07:20:57.667Z,99.90
2022-07-28T07:23:24.560Z,99.90
2022-07-28T07:25:51.456Z,99.90
2022-07-28T07:28:18.412Z,99.90
2022-07-28T07:30:45.306Z,99.90
2022-07-28T07:33:12.187Z,99.90
2022-07-28T07:35:39.175Z,99.90
2022-07-28T07:38:06.394Z,99.90
2022-07-28T07:40:33.723Z,99.90
2022-07-28T07:43:00.625Z,99.90
2022-07-28T07:45:27.538Z,99.90
2022-07-28T07:47:54.628Z,99.90
2022-07-28T07:50:21.711Z,99.90
2022-07-28T07:52:50.125Z,99.90
2022-07-28T07:55:17.544Z,99.90
2022-07-28T07:57:45.216Z,99.90
2022-07-28T08:00:30.544Z,99.90
2022-07-28T08:02:58.738Z,99.90
2022-07-28T08:05:34.976Z,99.90
2022-07-28T08:08:06.492Z,99.90
2022-07-28T08:10:34.703Z,99.90
2022-07-28T08:13:01.748Z,99.90
2022-07-28T08:15:28.948Z,99.90
2022-07-28T08:17:56.002Z,99.90
2022-07-28T08:20:23.501Z,99.90
2022-07-28T08:22:52.513Z,99.90
2022-07-28T08:25:20.694Z,99.90
2022-07-28T08:27:48.200Z,99.90
2022-07-28T08:30:18.608Z,99.90
2022-07-28T08:32:56.356Z,99.90
2022-07-28T08:35:36.294Z,99.90
2022-07-28T08:38:05.473Z,99.90
2022-07-28T08:40:37.683Z,99.90
2022-07-28T08:43:41.429Z,99.90
2022-07-28T08:46:09.368Z,99.90
2022-07-28T08:48:41.903Z,99.90
2022-07-28T08:51:13.535Z,99.90
2022-07-28T08:53:41.706Z,99.90
2022-07-28T08:56:14.130Z,99.90
2022-07-28T08:58:44.325Z,99.90
2022-07-28T09:01:14.553Z,99.90
2022-07-28T09:03:45.295Z,99.90
2022-07-28T09:06:12.560Z,99.90
2022-07-28T09:08:39.489Z,99.90
2022-07-28T09:11:10.361Z,99.90
2022-07-28T09:13:39.235Z,99.90
2022-07-28T09:16:09.511Z,99.90
2022-07-28T09:18:36.615Z,99.90
2022-07-28T09:21:03.599Z,99.90
2022-07-28T09:23:47.075Z,99.90
2022-07-28T09:26:14.697Z,99.90
2022-07-28T09:28:58.921Z,99.90
2022-07-28T09:31:27.836Z,99.90
2022-07-28T09:34:02.374Z,99.90
2022-07-28T09:36:31.139Z,99.90
2022-07-28T09:38:59.212Z,99.90
2022-07-28T09:41:26.229Z,99.90
2022-07-28T09:43:55.736Z,99.60
2022-07-28T09:46:29.363Z,95.40
2022-07-28T09:49:01.057Z,93.00
2022-07-28T09:51:30.995Z,93.10
2022-07-28T09:54:08.682Z,93.80
2022-07-28T09:56:36.421Z,93.10
2022-07-28T09:59:03.839Z,95.80
2022-07-28T10:01:35.746Z,96.80
2022-07-28T10:04:04.610Z,97.20
2022-07-28T10:06:33.440Z,96.20
2022-07-28T10:09:07.849Z,93.50
2022-07-28T10:11:40.950Z,91.00
2022-07-28T10:14:08.592Z,91.60
2022-07-28T10:16:42.050Z,87.60
2022-07-28T10:19:09.071Z,90.70
2022-07-28T10:21:46.503Z,90.90
2022-07-28T10:24:21.044Z,81.90
2022-07-28T10:26:48.745Z,78.70
2022-07-28T10:29:22.124Z,87.50
2022-07-28T10:31:54.672Z,90.90
2022-07-28T10:34:25.367Z,90.80
2022-07-28T10:36:55.944Z,85.10
2022-07-28T10:39:29.101Z,89.30
2022-07-28T10:41:56.669Z,86.00
2022-07-28T10:44:24.628Z,83.80
2022-07-28T10:46:52.902Z,75.40
2022-07-28T10:49:21.212Z,78.20
2022-07-28T10:52:05.005Z,72.30
2022-07-28T10:54:56.186Z,70.40
2022-07-28T10:57:24.423Z,71.40
2022-07-28T10:59:58.242Z,69.00
2022-07-28T11:02:58.984Z,69.20
2022-07-28T11:05:27.433Z,69.30
2022-07-28T11:07:54.680Z,69.50
2022-07-28T11:10:22.802Z,68.70
2022-07-28T11:12:55.741Z,71.50
2022-07-28T11:15:40.540Z,72.50
2022-07-28T11:18:09.446Z,73.30
2022-07-28T11:20:58.558Z,76.00
2022-07-28T11:23:47.734Z,84.80
2022-07-28T11:26:23.667Z,91.80
2022-07-28T11:29:11.244Z,95.30
2022-07-28T11:31:47.184Z,99.90
2022-07-28T11:34:16.460Z,99.90
2022-07-28T11:37:07.355Z,99.90
2022-07-28T11:39:43.848Z,99.90
2022-07-28T11:42:27.422Z,99.90
2022-07-28T11:44:55.987Z,99.90
2022-07-28T11:47:25.237Z,99.90
2022-07-28T11:50:14.950Z,99.90
2022-07-28T11:52:54.075Z,99.90
2022-07-28T11:55:21.366Z,99.90
2022-07-28T11:58:08.211Z,99.90
2022-07-28T12:00:35.203Z,99.90
2022-07-28T12:03:05.611Z,99.90
2022-07-28T12:05:34.373Z,99.90
2022-07-28T12:08:08.789Z,99.90
2022-07-28T12:10:54.084Z,99.90
2022-07-28T12:13:28.112Z,99.90
2022-07-28T12:15:55.011Z,99.90
2022-07-28T12:18:24.895Z,99.90
2022-07-28T12:20:53.767Z,99.90
2022-07-28T12:23:34.985Z,99.90
2022-07-28T12:26:11.232Z,99.90
2022-07-28T12:28:39.212Z,99.90
2022-07-28T12:31:13.147Z,99.90
2022-07-28T12:33:40.052Z,99.90
2022-07-28T12:36:08.079Z,99.90
2022-07-28T12:38:35.389Z,99.90
2022-07-28T12:41:02.524Z,99.90
2022-07-28T12:43:30.968Z,99.90
2022-07-28T12:45:58.256Z,99.90
2022-07-28T12:48:25.452Z,99.90
2022-07-28T12:50:52.344Z,99.90
2022-07-28T12:53:21.938Z,99.90
2022-07-28T12:55:49.006Z,99.90
2022-07-28T12:58:23.962Z,99.90
2022-07-28T13:00:52.488Z,99.90
2022-07-28T13:03:27.918Z,99.90
2022-07-28T13:06:05.281Z,99.90
2022-07-28T13:08:44.376Z,99.90
2022-07-28T13:11:41.866Z,99.90
2022-07-28T13:14:00.945Z,99.90
2022-07-28T13:16:29.170Z,99.90
2022-07-28T13:19:04.562Z,99.90
2022-07-28T13:21:56.680Z,99.90
2022-07-28T13:24:27.241Z,99.90
2022-07-28T13:26:54.420Z,99.90
2022-07-28T13:29:22.448Z,99.90
2022-07-28T13:31:49.554Z,99.90
2022-07-28T13:34:16.959Z,99.90
2022-07-28T13:36:44.031Z,99.90
2022-07-28T13:39:11.019Z,99.90
2022-07-28T13:41:48.532Z,99.90
2022-07-28T13:44:26.226Z,99.90
2022-07-28T13:46:53.479Z,99.90
2022-07-28T13:49:22.881Z,99.90
2022-07-28T13:51:51.285Z,99.90
2022-07-28T13:54:19.503Z,99.90
2022-07-28T13:57:07.219Z,99.90
2022-07-28T13:59:36.140Z,99.90
2022-07-28T14:02:03.277Z,99.90
2022-07-28T14:04:30.177Z,99.90
2022-07-28T14:06:58.649Z,99.90
2022-07-28T14:09:25.590Z,99.90
2022-07-28T14:11:53.635Z,99.90
2022-07-28T14:14:24.897Z,99.90
2022-07-28T14:16:54.570Z,99.90
2022-07-28T14:19:39.420Z,99.90
2022-07-28T14:22:13.744Z,99.90
2022-07-28T14:24:43.811Z,99.90
2022-07-28T14:27:13.717Z,99.90
2022-07-28T14:29:42.614Z,99.90
2022-07-28T14:32:09.549Z,99.90
2022-07-28T14:34:36.494Z,99.90
2022-07-28T14:37:09.067Z,99.90
2022-07-28T14:39:37.810Z,99.90
2022-07-28T14:42:05.736Z,99.90
2022-07-28T14:44:32.646Z,99.90
2022-07-28T14:46:59.549Z,99.90
2022-07-28T14:49:26.563Z,99.90
2022-07-28T14:51:53.650Z,99.90
2022-07-28T14:54:20.555Z,99.90
2022-07-28T14:56:47.443Z,99.90
2022-07-28T14:59:14.351Z,99.90
2022-07-28T15:01:41.321Z,99.90
2022-07-28T15:04:10.092Z,99.90
2022-07-28T15:06:36.984Z,99.90
2022-07-28T15:09:04.262Z,99.90
2022-07-28T15:11:31.196Z,99.90
2022-07-28T15:13:58.526Z,99.90
2022-07-28T15:16:25.694Z,99.90
2022-07-28T15:18:53.363Z,99.90
2022-07-28T15:21:20.477Z,99.90
2022-07-28T15:23:48.455Z,99.90
2022-07-28T15:26:15.402Z,99.90
2022-07-28T15:28:42.351Z,99.90
2022-07-28T15:31:09.301Z,99.90
2022-07-28T15:33:45.465Z,99.90
2022-07-28T15:36:15.010Z,99.90
2022-07-28T15:38:41.981Z,99.90
2022-07-28T15:41:18.088Z,99.90
2022-07-28T15:43:45.387Z,99.90
2022-07-28T15:46:13.677Z,99.90
2022-07-28T15:48:42.691Z,99.90
2022-07-28T15:51:09.906Z,99.90
2022-07-28T15:53:37.091Z,99.90
2022-07-28T15:56:05.021Z,99.90
2022-07-28T15:58:31.945Z,99.90
2022-07-28T16:01:01.578Z,99.90
2022-07-28T16:03:29.904Z,99.90
2022-07-28T16:05:58.723Z,99.90
2022-07-28T16:08:26.441Z,99.90
2022-07-28T16:10:54.487Z,99.90
2022-07-28T16:13:35.985Z,99.90
2022-07-28T16:16:07.603Z,99.90
2022-07-28T16:18:35.342Z,99.90
2022-07-28T16:21:02.426Z,99.90
2022-07-28T16:23:29.722Z,99.90
2022-07-28T16:25:56.642Z,99.90
2022-07-28T16:28:23.655Z,99.90
2022-07-28T16:30:50.651Z,99.90
2022-07-28T16:33:17.582Z,99.90
2022-07-28T16:35:45.107Z,99.90
2022-07-28T16:38:12.851Z,99.90
2022-07-28T16:40:40.958Z,99.90
2022-07-28T16:43:07.848Z,99.90
2022-07-28T16:45:35.814Z,99.90
2022-07-28T16:48:03.842Z,99.90
2022-07-28T16:50:31.735Z,99.90
2022-07-28T16:52:59.643Z,99.90
2022-07-28T16:55:27.796Z,99.90
2022-07-28T16:57:54.682Z,99.90
2022-07-28T17:00:21.847Z,99.90
2022-07-28T17:02:48.831Z,99.90
2022-07-28T17:05:15.831Z,99.90
2022-07-28T17:07:45.668Z,99.90
2022-07-28T17:10:14.881Z,99.90
2022-07-28T17:12:49.877Z,99.90
2022-07-28T17:15:19.592Z,99.90
2022-07-28T17:17:49.785Z,99.90
2022-07-28T17:20:17.068Z,99.90
2022-07-28T17:22:44.996Z,99.90
2022-07-28T17:27:59.523Z,99.90
2022-07-28T17:30:26.519Z,99.90
2022-07-28T17:32:59.245Z,99.90
2022-07-28T17:35:34.111Z,99.90
2022-07-28T17:38:03.019Z,99.90
2022-07-28T17:40:30.148Z,99.90
2022-07-28T17:42:57.130Z,99.90
2022-07-28T17:45:24.602Z,99.90
2022-07-28T17:47:51.878Z,99.90
2022-07-28T17:50:18.945Z,99.90
2022-07-28T17:52:46.432Z,99.90
2022-07-28T17:55:35.660Z,99.90
2022-07-28T17:58:28.949Z,99.90
2022-07-28T18:00:58.800Z,99.90
2022-07-28T18:03:58.979Z,99.90
2022-07-28T18:06:25.113Z,99.90
2022-07-28T18:08:52.060Z,98.90
2022-07-28T18:11:19.099Z,98.00
2022-07-28T18:14:04.488Z,97.60
2022-07-28T18:16:35.277Z,97.20
2022-07-28T18:19:04.879Z,97.90
2022-07-28T18:21:32.201Z,97.00
2022-07-28T18:24:02.181Z,99.20
2022-07-28T18:26:29.047Z,97.70
2022-07-28T18:28:55.984Z,97.70
2022-07-28T18:31:22.910Z,98.50
2022-07-28T18:33:49.815Z,98.10
2022-07-28T18:36:16.754Z,99.10
2022-07-28T18:38:43.629Z,98.20
2022-07-28T18:41:10.500Z,98.90
2022-07-28T18:43:37.461Z,98.30
2022-07-28T18:46:05.352Z,98.60
2022-07-28T18:48:32.341Z,99.70
2022-07-28T18:50:59.336Z,98.80
2022-07-28T18:53:26.733Z,99.20
2022-07-28T18:55:53.987Z,98.90
2022-07-28T18:58:20.927Z,99.10
2022-07-28T19:00:48.299Z,98.20
2022-07-28T19:03:15.421Z,99.50
2022-07-28T19:05:45.934Z,97.00
2022-07-28T19:08:13.277Z,98.60
2022-07-28T19:10:40.380Z,96.40
2022-07-28T19:13:09.116Z,97.40
2022-07-28T19:15:41.148Z,97.60
2022-07-28T19:18:11.328Z,96.40
2022-07-28T19:20:44.382Z,98.90
2022-07-28T19:23:11.463Z,99.60
2022-07-28T19:25:41.245Z,99.90
2022-07-28T19:28:08.165Z,99.90
2022-07-28T19:30:35.289Z,99.90
2022-07-28T19:33:03.077Z,99.90
2022-07-28T19:35:30.363Z,99.90
2022-07-28T19:37:59.984Z,99.90
2022-07-28T19:40:29.741Z,99.90
2022-07-28T19:42:57.555Z,99.90
2022-07-28T19:45:24.994Z,99.90
2022-07-28T19:47:51.888Z,99.90
2022-07-28T19:50:18.827Z,99.90
2022-07-28T19:52:45.717Z,99.90
2022-07-28T19:55:17.688Z,99.90
2022-07-28T19:57:45.513Z,99.90
2022-07-28T20:00:13.265Z,99.90
2022-07-28T20:02:40.492Z,99.90
2022-07-28T20:05:08.352Z,99.90
2022-07-28T20:07:35.411Z,99.90
2022-07-28T20:10:02.422Z,99.90
2022-07-28T20:12:34.270Z,99.90
2022-07-28T20:15:07.307Z,99.90
2022-07-28T20:17:39.394Z,99.90
2022-07-28T20:20:08.395Z,99.90
2022-07-28T20:22:35.438Z,99.90
2022-07-28T20:25:02.432Z,99.90
2022-07-28T20:27:29.444Z,99.90
2022-07-28T20:29:58.904Z,99.90
2022-07-28T20:32:26.158Z,99.90
2022-07-28T20:34:53.255Z,99.90
2022-07-28T20:37:35.604Z,99.90
2022-07-28T20:40:05.695Z,99.90
2022-07-28T20:42:32.539Z,99.90
2022-07-28T20:44:59.435Z,99.90
2022-07-28T20:47:28.151Z,99.90
2022-07-28T20:49:55.481Z,99.90
2022-07-28T20:52:23.464Z,99.90
2022-07-28T20:54:54.270Z,99.90
2022-07-28T20:57:22.189Z,99.90
2022-07-28T20:59:51.275Z,99.90
2022-07-28T21:02:22.025Z,99.90
2022-07-28T21:04:50.459Z,99.90
2022-07-28T21:08:00.618Z,99.90
2022-07-28T21:10:06.813Z,99.90
2022-07-28T21:12:34.589Z,99.90
2022-07-28T21:15:01.545Z,99.90
2022-07-28T21:17:28.572Z,99.90
2022-07-28T21:19:55.732Z,99.90
2022-07-28T21:22:22.938Z,99.90
2022-07-28T21:24:54.725Z,99.90
2022-07-28T21:27:22.885Z,99.90
2022-07-28T21:32:17.561Z,99.90
2022-07-28T21:34:44.521Z,99.90
2022-07-28T21:37:12.985Z,99.90
2022-07-28T21:39:40.569Z,99.90
2022-07-28T21:42:08.746Z,99.90
2022-07-28T21:44:37.358Z,99.90
2022-07-28T21:47:04.958Z,99.90
2022-07-28T21:49:32.545Z,99.90
2022-07-28T21:51:59.760Z,99.90
2022-07-28T21:54:26.861Z,99.90
2022-07-28T21:56:53.820Z,99.90
2022-07-28T21:59:20.891Z,99.90
2022-07-28T22:01:48.090Z,99.90
2022-07-28T22:04:15.483Z,99.90
2022-07-28T22:06:45.939Z,99.90
2022-07-28T22:09:14.354Z,99.90
2022-07-28T22:11:41.432Z,99.90
2022-07-28T22:14:08.350Z,99.90
2022-07-28T22:16:35.447Z,99.90
2022-07-28T22:19:02.532Z,99.90
2022-07-28T22:21:29.425Z,99.90
2022-07-28T22:23:56.447Z,99.90
2022-07-28T22:26:23.387Z,99.90
2022-07-28T22:28:50.307Z,99.90
2022-07-28T22:31:17.288Z,99.90
2022-07-28T22:33:44.254Z,99.90
2022-07-28T22:36:11.299Z,99.90
2022-07-28T22:38:38.256Z,99.90
2022-07-28T22:41:05.420Z,99.90
2022-07-28T22:43:33.991Z,99.90
2022-07-28T22:46:01.202Z,99.90
2022-07-28T22:48:28.407Z,99.90
2022-07-28T22:50:55.495Z,99.90
2022-07-28T22:53:22.759Z,99.90
2022-07-28T22:58:34.271Z,99.90
2022-07-28T23:01:01.718Z,99.90
2022-07-28T23:03:30.575Z,99.90
2022-07-28T23:06:01.476Z,99.90
2022-07-28T23:08:29.075Z,99.90
2022-07-28T23:10:55.972Z,99.90
2022-07-28T23:13:22.956Z,99.90
2022-07-28T23:15:50.525Z,99.90
2022-07-28T23:18:17.512Z,99.90
2022-07-28T23:20:45.081Z,99.90
2022-07-28T23:23:12.599Z,99.90
2022-07-28T23:25:42.979Z,99.90
2022-07-28T23:28:11.043Z,99.90
2022-07-28T23:30:38.182Z,99.90
2022-07-28T23:33:05.856Z,99.90
2022-07-28T23:35:33.675Z,99.90
2022-07-28T23:38:00.623Z,99.90
2022-07-28T23:40:27.790Z,99.90
2022-07-28T23:42:54.670Z,99.90
2022-07-28T23:45:21.585Z,99.90
2022-07-28T23:47:48.634Z,99.90
2022-07-28T23:50:15.630Z,99.90
2022-07-28T23:52:42.602Z,99.90
2022-07-28T23:55:09.769Z,99.90
2022-07-28T23:57:36.792Z,99.90
